Cheshire, Connecticut
Current Conditions -  °F | °C
As of 6:53 PM on Saturday 25 Oct 2014 (Local Time) from KMMK Reporting Station
Few Clouds Few Clouds  
Wind Chill: 11°   Ceiling: Unl
Heat Index: 11°   Visibility: 10mi
Dew Point:   Wind: 0mph
Humidity: 74%   Direction: NA
Pressure: 29.62"   Gusts: NA
Location:  41.5°N, 72.9°W
Report Text: KMMK 252253Z AUTO 00000KT 10SM FEW095 11/07 A2962 RMK AO2 SLP031 T01110067 TSNO
Loading
Personal Weather Stations






























Interactive Weather Map
Tropical Storm Tracking
New forecast layout! Learn more

10-Day Weather Forecast

Advertisements
Track Severe Weather on mobile